createdAt,value
2018-05-04T00:00:02.237Z,0.00
2018-05-04T00:01:02.231Z,0.00
2018-05-04T00:02:02.220Z,0.00
2018-05-04T00:03:02.215Z,0.00
2018-05-04T00:04:02.203Z,0.00
2018-05-04T00:05:02.198Z,0.00
2018-05-04T00:06:02.198Z,0.00
2018-05-04T00:07:02.181Z,0.00
2018-05-04T00:08:02.171Z,0.00
2018-05-04T00:09:02.161Z,0.00
2018-05-04T00:10:02.158Z,0.00
2018-05-04T00:11:02.147Z,0.00
2018-05-04T00:12:02.140Z,0.00
2018-05-04T00:13:02.140Z,0.00
2018-05-04T00:14:02.147Z,0.00
2018-05-04T00:15:02.120Z,0.00
2018-05-04T00:16:02.107Z,0.00
2018-05-04T00:17:02.104Z,0.00
2018-05-04T00:18:02.100Z,0.00
2018-05-04T00:19:02.091Z,0.00
2018-05-04T00:20:02.156Z,0.00
2018-05-04T00:21:02.068Z,0.00
2018-05-04T00:22:02.056Z,0.00
2018-05-04T00:23:02.053Z,0.00
2018-05-04T00:24:02.045Z,0.00
2018-05-04T00:25:02.035Z,0.00
2018-05-04T00:26:02.027Z,0.00
2018-05-04T00:27:02.025Z,0.00
2018-05-04T00:28:02.009Z,0.00
2018-05-04T00:29:02.005Z,0.00
2018-05-04T00:30:01.998Z,0.00
2018-05-04T00:31:01.990Z,0.00
2018-05-04T00:32:01.977Z,0.00
2018-05-04T00:33:01.974Z,0.00
2018-05-04T00:34:01.972Z,0.00
2018-05-04T00:35:01.979Z,0.00
2018-05-04T00:36:01.967Z,0.00
2018-05-04T00:37:01.947Z,0.00
2018-05-04T00:38:01.948Z,0.00
2018-05-04T00:39:01.931Z,0.00
2018-05-04T00:40:01.923Z,0.00
2018-05-04T00:41:01.914Z,0.00
2018-05-04T00:42:01.907Z,0.00
2018-05-04T00:43:01.896Z,0.00
2018-05-04T00:44:01.893Z,0.00
2018-05-04T00:45:01.893Z,0.00
2018-05-04T00:46:01.877Z,0.00
2018-05-04T00:47:01.866Z,0.00
2018-05-04T00:48:01.866Z,0.00
2018-05-04T00:49:01.848Z,0.00
2018-05-04T00:50:01.875Z,0.00
2018-05-04T00:51:01.843Z,0.00
2018-05-04T00:52:01.840Z,0.00
2018-05-04T00:53:01.903Z,0.00
2018-05-04T00:54:01.807Z,0.00
2018-05-04T00:55:01.800Z,0.00
2018-05-04T00:56:01.796Z,0.00
2018-05-04T00:57:01.784Z,0.00
2018-05-04T00:58:01.785Z,0.00
2018-05-04T00:59:01.768Z,0.00
2018-05-04T01:00:01.758Z,0.00
2018-05-04T01:01:01.752Z,0.00
2018-05-04T01:02:01.746Z,0.00
2018-05-04T01:03:01.734Z,0.00
2018-05-04T01:04:01.736Z,0.00
2018-05-04T01:05:01.728Z,0.00
2018-05-04T01:06:01.708Z,0.00
2018-05-04T01:07:01.701Z,0.00
2018-05-04T01:08:01.691Z,0.00
2018-05-04T01:09:01.684Z,0.00
2018-05-04T01:10:01.675Z,0.00
2018-05-04T01:11:01.667Z,0.00
2018-05-04T01:12:01.659Z,0.00
2018-05-04T01:13:01.650Z,0.00
2018-05-04T01:14:01.662Z,0.00
2018-05-04T01:15:01.635Z,0.00
2018-05-04T01:16:01.626Z,0.00
2018-05-04T01:17:01.616Z,0.00
2018-05-04T01:18:01.620Z,0.00
2018-05-04T01:19:01.610Z,0.00
2018-05-04T01:20:01.591Z,0.00
2018-05-04T01:21:01.590Z,0.00
2018-05-04T01:22:01.588Z,0.00
2018-05-04T01:23:01.595Z,0.00
2018-05-04T01:24:01.559Z,0.00
2018-05-04T01:25:01.558Z,0.00
2018-05-04T01:26:01.554Z,0.00
2018-05-04T01:27:01.536Z,0.00
2018-05-04T01:28:01.530Z,0.00
2018-05-04T01:29:01.529Z,0.00
2018-05-04T01:30:01.520Z,0.00
2018-05-04T01:31:01.512Z,0.00
2018-05-04T01:32:01.492Z,0.00
2018-05-04T01:33:01.486Z,0.00
2018-05-04T01:34:01.481Z,0.00
2018-05-04T01:35:01.467Z,0.00
2018-05-04T01:36:01.476Z,0.00
2018-05-04T01:37:01.507Z,0.00
2018-05-04T01:38:01.448Z,0.00
2018-05-04T01:39:01.446Z,0.00
2018-05-04T01:40:01.427Z,0.00
2018-05-04T01:41:01.429Z,0.00
2018-05-04T01:42:01.411Z,0.00
2018-05-04T01:43:01.402Z,0.00
2018-05-04T01:44:01.407Z,0.00
2018-05-04T01:45:01.385Z,0.00
2018-05-04T01:46:01.386Z,0.00
2018-05-04T01:47:01.383Z,0.00
2018-05-04T01:48:01.357Z,0.00
2018-05-04T01:49:01.348Z,0.00
2018-05-04T01:50:01.345Z,0.00
2018-05-04T01:51:01.338Z,0.00
2018-05-04T01:52:01.359Z,0.00
2018-05-04T01:53:01.315Z,0.00
2018-05-04T01:54:01.309Z,0.00
2018-05-04T01:55:01.314Z,0.00
2018-05-04T01:56:01.291Z,0.00
2018-05-04T01:57:01.285Z,0.00
2018-05-04T01:58:01.274Z,0.00
2018-05-04T01:59:01.269Z,0.00
2018-05-04T02:00:01.257Z,0.00
2018-05-04T02:01:01.264Z,0.00
2018-05-04T02:02:01.242Z,0.00
2018-05-04T02:03:01.230Z,0.00
2018-05-04T02:04:01.222Z,0.00
2018-05-04T02:05:01.214Z,0.00
2018-05-04T02:06:01.209Z,0.00
2018-05-04T02:07:01.210Z,0.00
2018-05-04T02:08:01.203Z,0.00
2018-05-04T02:09:01.191Z,0.00
2018-05-04T02:10:01.176Z,0.00
2018-05-04T02:11:01.178Z,0.00
2018-05-04T02:12:01.158Z,0.00
2018-05-04T02:13:01.158Z,0.00
2018-05-04T02:14:01.142Z,0.00
2018-05-04T02:15:01.141Z,0.00
2018-05-04T02:16:01.133Z,0.00
2018-05-04T02:17:01.117Z,0.00
2018-05-04T02:18:01.107Z,0.00
2018-05-04T02:19:01.108Z,0.00
2018-05-04T02:20:01.086Z,0.00
2018-05-04T02:21:01.094Z,0.00
2018-05-04T02:22:01.092Z,0.00
2018-05-04T02:23:01.063Z,0.00
2018-05-04T02:24:01.055Z,0.00
2018-05-04T02:25:01.046Z,0.00
2018-05-04T02:26:01.039Z,0.00
2018-05-04T02:27:01.043Z,0.00
2018-05-04T02:28:01.034Z,0.00
2018-05-04T02:29:01.014Z,0.00
2018-05-04T02:30:01.002Z,0.00
2018-05-04T02:31:00.994Z,0.00
2018-05-04T02:32:00.985Z,0.00
2018-05-04T02:33:00.979Z,0.00
2018-05-04T02:34:00.967Z,0.00
2018-05-04T02:35:00.960Z,0.00
2018-05-04T02:36:00.953Z,0.00
2018-05-04T02:37:00.953Z,0.00
2018-05-04T02:38:00.946Z,0.00
2018-05-04T02:39:00.937Z,0.00
2018-05-04T02:40:00.918Z,0.00
2018-05-04T02:41:00.909Z,0.00
2018-05-04T02:42:00.903Z,0.00
2018-05-04T02:43:00.895Z,0.00
2018-05-04T02:44:00.880Z,0.00
2018-05-04T02:45:00.883Z,0.00
2018-05-04T02:46:00.878Z,0.00
2018-05-04T02:47:00.858Z,0.00
2018-05-04T02:48:00.847Z,0.00
2018-05-04T02:49:00.852Z,0.00
2018-05-04T02:50:00.832Z,0.00
2018-05-04T02:51:00.823Z,0.00
2018-05-04T02:52:00.823Z,0.00
2018-05-04T02:53:00.804Z,0.00
2018-05-04T02:54:00.807Z,0.00
2018-05-04T02:55:00.788Z,0.00
2018-05-04T02:56:00.779Z,0.00
2018-05-04T02:57:00.769Z,0.00
2018-05-04T02:58:00.777Z,0.00
2018-05-04T02:59:00.765Z,0.00
2018-05-04T03:00:00.754Z,0.00
2018-05-04T03:01:00.734Z,0.00
2018-05-04T03:02:00.728Z,0.00
2018-05-04T03:03:00.720Z,0.00
2018-05-04T03:04:00.712Z,0.00
2018-05-04T03:05:00.701Z,0.00
2018-05-04T03:06:00.696Z,0.00
2018-05-04T03:07:00.690Z,0.00
2018-05-04T03:08:00.676Z,0.00
2018-05-04T03:09:00.667Z,0.00
2018-05-04T03:10:00.688Z,0.00
2018-05-04T03:11:00.652Z,0.00
2018-05-04T03:12:00.652Z,0.00
2018-05-04T03:13:00.637Z,0.00
2018-05-04T03:14:00.625Z,0.00
2018-05-04T03:15:00.618Z,0.00
2018-05-04T03:16:00.651Z,0.00
2018-05-04T03:17:00.607Z,0.00
2018-05-04T03:18:00.590Z,0.00
2018-05-04T03:19:00.596Z,0.00
2018-05-04T03:20:00.572Z,4.00
2018-05-04T03:21:00.561Z,4.00
2018-05-04T03:22:00.615Z,0.00
2018-05-04T03:23:00.548Z,4.00
2018-05-04T03:24:00.546Z,4.00
2018-05-04T03:25:00.539Z,4.00
2018-05-04T03:26:00.532Z,4.00
2018-05-04T03:27:00.512Z,8.00
2018-05-04T03:28:00.512Z,4.00
2018-05-04T03:29:00.493Z,4.00
2018-05-04T03:30:00.485Z,8.00
2018-05-04T03:31:00.480Z,12.00
2018-05-04T03:32:00.468Z,12.00
2018-05-04T03:33:00.461Z,16.00
2018-05-04T03:34:00.449Z,16.00
2018-05-04T03:35:00.448Z,16.00
2018-05-04T03:36:00.443Z,24.00
2018-05-04T03:37:00.434Z,24.00
2018-05-04T03:38:00.426Z,28.00
2018-05-04T03:39:00.405Z,32.00
2018-05-04T03:40:00.405Z,36.00
2018-05-04T03:41:00.398Z,40.00
2018-05-04T03:42:00.378Z,44.00
2018-05-04T03:43:00.380Z,52.00
2018-05-04T03:44:00.378Z,60.00
2018-05-04T03:45:00.352Z,68.00
2018-05-04T03:46:00.344Z,76.00
2018-05-04T03:47:00.351Z,84.00
2018-05-04T03:48:00.340Z,92.00
2018-05-04T03:49:00.329Z,104.00
2018-05-04T03:50:00.307Z,112.00
2018-05-04T03:51:00.317Z,128.00
2018-05-04T03:52:00.353Z,140.00
2018-05-04T03:53:00.291Z,152.00
2018-05-04T03:54:00.287Z,168.00
2018-05-04T03:55:00.268Z,184.00
2018-05-04T03:56:00.284Z,200.00
2018-05-04T03:57:00.270Z,216.00
2018-05-04T03:58:00.250Z,236.00
2018-05-04T03:59:00.232Z,256.00
2018-05-04T04:00:00.223Z,276.00
2018-05-04T04:01:00.212Z,300.00
2018-05-04T04:02:00.204Z,320.00
2018-05-04T04:03:00.206Z,344.00
2018-05-04T04:04:00.186Z,372.00
2018-05-04T04:05:00.176Z,392.00
2018-05-04T04:06:00.171Z,420.00
2018-05-04T04:07:00.189Z,448.00
2018-05-04T04:08:00.149Z,476.00
2018-05-04T04:09:00.148Z,504.00
2018-05-04T04:10:00.135Z,532.00
2018-05-04T04:11:00.125Z,568.00
2018-05-04T04:12:00.116Z,596.00
2018-05-04T04:13:00.117Z,632.00
2018-05-04T04:14:00.104Z,660.00
2018-05-04T04:15:00.091Z,696.00
2018-05-04T04:16:00.095Z,732.00
2018-05-04T04:17:00.087Z,764.00
2018-05-04T04:18:00.157Z,804.00
2018-05-04T04:19:00.055Z,840.00
2018-05-04T04:20:00.044Z,872.00
2018-05-04T04:21:00.035Z,912.00
2018-05-04T04:22:00.029Z,952.00
2018-05-04T04:23:00.023Z,988.00
2018-05-04T04:24:00.017Z,1028.00
2018-05-04T04:25:00.017Z,1068.00
2018-05-04T04:25:59.996Z,1104.00
2018-05-04T04:26:59.997Z,1144.00
2018-05-04T04:27:59.984Z,1180.00
2018-05-04T04:28:59.988Z,1224.00
2018-05-04T04:29:59.960Z,1260.00
2018-05-04T04:30:59.961Z,1296.00
2018-05-04T04:31:59.940Z,1336.00
2018-05-04T04:32:59.931Z,1372.00
2018-05-04T04:33:59.928Z,1412.00
2018-05-04T04:34:59.925Z,1452.00
2018-05-04T04:35:59.904Z,1488.00
2018-05-04T04:36:59.897Z,1528.00
2018-05-04T04:37:59.898Z,1564.00
2018-05-04T04:38:59.881Z,1604.00
2018-05-04T04:39:59.871Z,1640.00
2018-05-04T04:40:59.870Z,1680.00
2018-05-04T04:41:59.853Z,1716.00
2018-05-04T04:42:59.858Z,1788.00
2018-05-04T04:43:59.845Z,2088.00
2018-05-04T04:44:59.825Z,2440.00
2018-05-04T04:45:59.816Z,2600.00
2018-05-04T04:46:59.817Z,2592.00
2018-05-04T04:47:59.800Z,2236.00
2018-05-04T04:48:59.792Z,2008.00
2018-05-04T04:49:59.781Z,2028.00
2018-05-04T04:50:59.787Z,2100.00
2018-05-04T04:51:59.782Z,2472.00
2018-05-04T04:52:59.757Z,3084.00
2018-05-04T04:53:59.747Z,3492.00
2018-05-04T04:54:59.742Z,3624.00
2018-05-04T04:55:59.744Z,3732.00
2018-05-04T04:56:59.724Z,3844.00
2018-05-04T04:57:59.731Z,3960.00
2018-05-04T04:58:59.709Z,4088.00
2018-05-04T04:59:59.706Z,4224.00
2018-05-04T05:00:59.703Z,4320.00
2018-05-04T05:01:59.699Z,4408.00
2018-05-04T05:02:59.683Z,4492.00
2018-05-04T05:03:59.676Z,4616.00
2018-05-04T05:04:59.657Z,4740.00
2018-05-04T05:05:59.650Z,4848.00
2018-05-04T05:06:59.652Z,4920.00
2018-05-04T05:07:59.650Z,5028.00
2018-05-04T05:08:59.635Z,5156.00
2018-05-04T05:09:59.630Z,5280.00
2018-05-04T05:10:59.616Z,5420.00
2018-05-04T05:11:59.614Z,5556.00
2018-05-04T05:12:59.592Z,5664.00
2018-05-04T05:13:59.588Z,5768.00
2018-05-04T05:14:59.590Z,5900.00
2018-05-04T05:15:59.587Z,6048.00
2018-05-04T05:16:59.571Z,6232.00
2018-05-04T05:17:59.568Z,6336.00
2018-05-04T05:18:59.551Z,6444.00
2018-05-04T05:19:59.542Z,6524.00
2018-05-04T05:20:59.540Z,6612.00
2018-05-04T05:21:59.544Z,6768.00
2018-05-04T05:22:59.518Z,6948.00
2018-05-04T05:23:59.513Z,7060.00
2018-05-04T05:24:59.518Z,7248.00
2018-05-04T05:25:59.497Z,7544.00
2018-05-04T05:26:59.503Z,7712.00
2018-05-04T05:27:59.501Z,7768.00
2018-05-04T05:28:59.478Z,8044.00
2018-05-04T05:29:59.508Z,8568.00
2018-05-04T05:30:59.469Z,8476.00
2018-05-04T05:31:59.461Z,7836.00
2018-05-04T05:32:59.455Z,7808.00
2018-05-04T05:33:59.445Z,8312.00
2018-05-04T05:34:59.453Z,8584.00
2018-05-04T05:35:59.439Z,8564.00
2018-05-04T05:36:59.444Z,8688.00
2018-05-04T05:37:59.421Z,8708.00
2018-05-04T05:38:59.416Z,8780.00
2018-05-04T05:39:59.408Z,9004.00
2018-05-04T05:40:59.415Z,9212.00
2018-05-04T05:41:59.404Z,9400.00
2018-05-04T05:42:59.393Z,9528.00
2018-05-04T05:43:59.390Z,9644.00
2018-05-04T05:44:59.397Z,9888.00
2018-05-04T05:45:59.373Z,10140.00
2018-05-04T05:46:59.368Z,10332.00
2018-05-04T05:47:59.379Z,10428.00
2018-05-04T05:48:59.358Z,10596.00
2018-05-04T05:49:59.354Z,10820.00
2018-05-04T05:50:59.361Z,10892.00
2018-05-04T05:51:59.359Z,9988.00
2018-05-04T05:52:59.351Z,8512.00
2018-05-04T05:53:59.350Z,8764.00
2018-05-04T05:54:59.342Z,11004.00
2018-05-04T05:55:59.324Z,12248.00
2018-05-04T05:56:59.332Z,12396.00
2018-05-04T05:57:59.337Z,12636.00
2018-05-04T05:58:59.313Z,12584.00
2018-05-04T05:59:59.306Z,11836.00
2018-05-04T06:00:59.312Z,8664.00
2018-05-04T06:01:59.298Z,6180.00
2018-05-04T06:02:59.308Z,5268.00
2018-05-04T06:03:59.304Z,6384.00
2018-05-04T06:04:59.331Z,6856.00
2018-05-04T06:05:59.295Z,6940.00
2018-05-04T06:06:59.291Z,8940.00
2018-05-04T06:07:59.303Z,11716.00
2018-05-04T06:08:59.304Z,14208.00
2018-05-04T06:09:59.266Z,15136.00
2018-05-04T06:10:59.268Z,15296.00
2018-05-04T06:11:59.258Z,15520.00
2018-05-04T06:12:59.260Z,15936.00
2018-05-04T06:13:59.262Z,16000.00
2018-05-04T06:14:59.310Z,15808.00
2018-05-04T06:15:59.250Z,15808.00
2018-05-04T06:16:59.247Z,16512.00
2018-05-04T06:17:59.228Z,16480.00
2018-05-04T06:18:59.225Z,16480.00
2018-05-04T06:19:59.221Z,16608.00
2018-05-04T06:20:59.230Z,14816.00
2018-05-04T06:21:59.229Z,10032.00
2018-05-04T06:22:59.212Z,7392.00
2018-05-04T06:23:59.209Z,7900.00
2018-05-04T06:24:59.218Z,7736.00
2018-05-04T06:25:59.201Z,5556.00
2018-05-04T06:26:59.213Z,5212.00
2018-05-04T06:27:59.205Z,5304.00
2018-05-04T06:28:59.204Z,5996.00
2018-05-04T06:29:59.192Z,7240.00
2018-05-04T06:30:59.196Z,12780.00
2018-05-04T06:31:59.187Z,18176.00
2018-05-04T06:32:59.217Z,20768.00
2018-05-04T06:33:59.173Z,20672.00
2018-05-04T06:34:59.173Z,20768.00
2018-05-04T06:35:59.163Z,12180.00
2018-05-04T06:36:59.162Z,9000.00
2018-05-04T06:37:59.157Z,12328.00
2018-05-04T06:38:59.159Z,12708.00
2018-05-04T06:39:59.148Z,7872.00
2018-05-04T06:40:59.159Z,6148.00
2018-05-04T06:41:59.154Z,7012.00
2018-05-04T06:42:59.138Z,9312.00
2018-05-04T06:43:59.136Z,14936.00
2018-05-04T06:44:59.132Z,19776.00
2018-05-04T06:45:59.132Z,21184.00
2018-05-04T06:46:59.124Z,23360.00
2018-05-04T06:47:59.118Z,21536.00
2018-05-04T06:48:59.126Z,25440.00
2018-05-04T06:49:59.112Z,25152.00
2018-05-04T06:50:59.140Z,25152.00
2018-05-04T06:51:59.113Z,25696.00
2018-05-04T06:52:59.102Z,24288.00
2018-05-04T06:53:59.106Z,20672.00
2018-05-04T06:54:59.092Z,13432.00
2018-05-04T06:55:59.091Z,10300.00
2018-05-04T06:56:59.096Z,11968.00
2018-05-04T06:57:59.081Z,10628.00
2018-05-04T06:58:59.091Z,9964.00
2018-05-04T06:59:59.073Z,10524.00
2018-05-04T07:00:59.073Z,19072.00
2018-05-04T07:01:59.072Z,18784.00
2018-05-04T07:02:59.073Z,15456.00
2018-05-04T07:03:59.077Z,13944.00
2018-05-04T07:04:59.077Z,14508.00
2018-05-04T07:05:59.059Z,10184.00
2018-05-04T07:06:59.055Z,26528.00
2018-05-04T07:07:59.053Z,30240.00
2018-05-04T07:08:59.100Z,30464.00
2018-05-04T07:09:59.061Z,25856.00
2018-05-04T07:10:59.040Z,21120.00
2018-05-04T07:11:59.042Z,16352.00
2018-05-04T07:12:59.039Z,14600.00
2018-05-04T07:13:59.051Z,13416.00
2018-05-04T07:14:59.037Z,21408.00
2018-05-04T07:15:59.042Z,29568.00
2018-05-04T07:16:59.026Z,33920.00
2018-05-04T07:17:59.025Z,36832.00
2018-05-04T07:18:59.033Z,36288.00
2018-05-04T07:19:59.016Z,36512.00
2018-05-04T07:20:59.017Z,36768.00
2018-05-04T07:21:59.101Z,37120.00
2018-05-04T07:22:59.025Z,38112.00
2018-05-04T07:23:59.020Z,37728.00
2018-05-04T07:24:59.009Z,38912.00
2018-05-04T07:25:59.015Z,39040.00
2018-05-04T07:26:59.005Z,38720.00
2018-05-04T07:27:59.027Z,39744.00
2018-05-04T07:28:59.012Z,39392.00
2018-05-04T07:29:59.002Z,40832.00
2018-05-04T07:30:59.007Z,42816.00
2018-05-04T07:31:59.009Z,42464.00
2018-05-04T07:32:59.001Z,40480.00
2018-05-04T07:33:59.001Z,26752.00
2018-05-04T07:34:59.003Z,18368.00
2018-05-04T07:35:59.028Z,17696.00
2018-05-04T07:36:58.998Z,17472.00
2018-05-04T07:37:59.001Z,17184.00
2018-05-04T07:38:59.002Z,17184.00
2018-05-04T07:39:58.998Z,17280.00
2018-05-04T07:40:59.013Z,17632.00
2018-05-04T07:41:59.001Z,18304.00
2018-05-04T07:42:59.014Z,26752.00
2018-05-04T07:43:59.021Z,42080.00
2018-05-04T07:44:59.015Z,44960.00
2018-05-04T07:45:59.017Z,44864.00
2018-05-04T07:46:59.009Z,43776.00
2018-05-04T07:47:59.014Z,41440.00
2018-05-04T07:48:59.020Z,42624.00
2018-05-04T07:49:59.022Z,45504.00
2018-05-04T07:50:59.015Z,47872.00
2018-05-04T07:51:59.020Z,49696.00
2018-05-04T07:52:59.017Z,49952.00
2018-05-04T07:53:59.022Z,50880.00
2018-05-04T07:54:59.021Z,51616.00
2018-05-04T07:55:59.079Z,50464.00
2018-05-04T07:56:59.041Z,51136.00
2018-05-04T07:57:59.031Z,49984.00
2018-05-04T07:58:59.046Z,49184.00
2018-05-04T07:59:59.039Z,50752.00
2018-05-04T08:00:59.042Z,50784.00
2018-05-04T08:01:59.042Z,50432.00
2018-05-04T08:02:59.154Z,50880.00
2018-05-04T08:03:59.063Z,51520.00
2018-05-04T08:04:59.065Z,50464.00
2018-05-04T08:05:59.060Z,49728.00
2018-05-04T08:06:59.062Z,51648.00
2018-05-04T08:07:59.064Z,52352.00
2018-05-04T08:08:59.079Z,52736.00
2018-05-04T08:09:59.074Z,53280.00
2018-05-04T08:10:59.092Z,53920.00
2018-05-04T08:11:59.096Z,55296.00
2018-05-04T08:12:59.086Z,53184.00
2018-05-04T08:13:59.091Z,52896.00
2018-05-04T08:14:59.097Z,54656.00
2018-05-04T08:15:59.107Z,55968.00
2018-05-04T08:16:59.118Z,55552.00
2018-05-04T08:17:59.117Z,54880.00
2018-05-04T08:18:59.118Z,54688.00
2018-05-04T08:19:59.174Z,53696.00
2018-05-04T08:20:59.121Z,53664.00
2018-05-04T08:21:59.145Z,55552.00
2018-05-04T08:22:59.151Z,58720.00
2018-05-04T08:23:59.157Z,57760.00
2018-05-04T08:24:59.166Z,55840.00
2018-05-04T08:25:59.160Z,56000.00
2018-05-04T08:26:59.159Z,55744.00
2018-05-04T08:27:59.191Z,54400.00
2018-05-04T08:28:59.171Z,55424.00
2018-05-04T08:29:59.186Z,56128.00
2018-05-04T08:30:59.205Z,55040.00
2018-05-04T08:31:59.184Z,55680.00
2018-05-04T08:32:59.192Z,55072.00
2018-05-04T08:33:59.206Z,53632.00
2018-05-04T08:34:59.203Z,56032.00
2018-05-04T08:35:59.219Z,54816.00
2018-05-04T08:36:59.236Z,53376.00
2018-05-04T08:37:59.241Z,58240.00
2018-05-04T08:38:59.235Z,59360.00
2018-05-04T08:39:59.241Z,54304.00
2018-05-04T08:40:59.242Z,54112.00
2018-05-04T08:41:59.244Z,59808.00
2018-05-04T08:42:59.332Z,62656.00
2018-05-04T08:43:59.269Z,61952.00
2018-05-04T08:44:59.276Z,61408.00
2018-05-04T08:45:59.281Z,48160.00
2018-05-04T08:46:59.271Z,22432.00
2018-05-04T08:47:59.281Z,22240.00
2018-05-04T08:48:59.285Z,22208.00
2018-05-04T08:49:59.296Z,38624.00
2018-05-04T08:50:59.331Z,61632.00
2018-05-04T08:51:59.313Z,63968.00
2018-05-04T08:52:59.310Z,64864.00
2018-05-04T08:53:59.320Z,64800.00
2018-05-04T08:54:59.340Z,65504.00
2018-05-04T08:55:59.348Z,64768.00
2018-05-04T08:56:59.350Z,65600.00
2018-05-04T08:57:59.361Z,67744.00
2018-05-04T08:58:59.358Z,66720.00
2018-05-04T08:59:59.358Z,65120.00
2018-05-04T09:00:59.366Z,66016.00
2018-05-04T09:01:59.382Z,68384.00
2018-05-04T09:02:59.391Z,69632.00
2018-05-04T09:03:59.401Z,68384.00
2018-05-04T09:04:59.418Z,67488.00
2018-05-04T09:05:59.413Z,68512.00
2018-05-04T09:06:59.422Z,68320.00
2018-05-04T09:07:59.416Z,70400.00
2018-05-04T09:08:59.436Z,71136.00
2018-05-04T09:09:59.434Z,70368.00
2018-05-04T09:10:59.455Z,72416.00
2018-05-04T09:11:59.444Z,73344.00
2018-05-04T09:12:59.467Z,71968.00
2018-05-04T09:13:59.472Z,71264.00
2018-05-04T09:14:59.468Z,71488.00
2018-05-04T09:15:59.475Z,73472.00
2018-05-04T09:16:59.481Z,72416.00
2018-05-04T09:17:59.489Z,71680.00
2018-05-04T09:18:59.496Z,73344.00
2018-05-04T09:19:59.504Z,71136.00
2018-05-04T09:20:59.512Z,70144.00
2018-05-04T09:21:59.533Z,73024.00
2018-05-04T09:22:59.529Z,74720.00
2018-05-04T09:23:59.536Z,74944.00
2018-05-04T09:24:59.550Z,74912.00
2018-05-04T09:25:59.552Z,76416.00
2018-05-04T09:26:59.559Z,76416.00
2018-05-04T09:27:59.564Z,76000.00
2018-05-04T09:28:59.574Z,77536.00
2018-05-04T09:29:59.593Z,79520.00
2018-05-04T09:30:59.609Z,80000.00
2018-05-04T09:31:59.602Z,78304.00
2018-05-04T09:32:59.604Z,78432.00
2018-05-04T09:33:59.621Z,80384.00
2018-05-04T09:34:59.629Z,79552.00
2018-05-04T09:35:59.631Z,77600.00
2018-05-04T09:36:59.639Z,77760.00
2018-05-04T09:37:59.645Z,81184.00
2018-05-04T09:38:59.654Z,82688.00
2018-05-04T09:39:59.660Z,83424.00
2018-05-04T09:40:59.670Z,82560.00
2018-05-04T09:41:59.675Z,84160.00
2018-05-04T09:42:59.701Z,83200.00
2018-05-04T09:43:59.704Z,83136.00
2018-05-04T09:44:59.711Z,85280.00
2018-05-04T09:45:59.719Z,82368.00
2018-05-04T09:46:59.745Z,77824.00
2018-05-04T09:47:59.739Z,79168.00
2018-05-04T09:48:59.823Z,80512.00
2018-05-04T09:49:59.753Z,82752.00
2018-05-04T09:50:59.772Z,86816.00
2018-05-04T09:51:59.758Z,87936.00
2018-05-04T09:52:59.775Z,86272.00
2018-05-04T09:53:59.772Z,84896.00
2018-05-04T09:54:59.781Z,84000.00
2018-05-04T09:55:59.892Z,83328.00
2018-05-04T09:56:59.827Z,84352.00
2018-05-04T09:57:59.813Z,86176.00
2018-05-04T09:58:59.856Z,85536.00
2018-05-04T09:59:59.832Z,81632.00
2018-05-04T10:00:59.840Z,81600.00
2018-05-04T10:01:59.838Z,84160.00
2018-05-04T10:02:59.847Z,85312.00
2018-05-04T10:03:59.867Z,86496.00
2018-05-04T10:04:59.863Z,87360.00
2018-05-04T10:05:59.870Z,85856.00
2018-05-04T10:06:59.890Z,86976.00
2018-05-04T10:07:59.884Z,87104.00
2018-05-04T10:08:59.900Z,88288.00
2018-05-04T10:09:59.901Z,87776.00
2018-05-04T10:10:59.920Z,88704.00
2018-05-04T10:11:59.929Z,88416.00
2018-05-04T10:12:59.937Z,87712.00
2018-05-04T10:13:59.937Z,88352.00
2018-05-04T10:14:59.944Z,89088.00
2018-05-04T10:16:00.070Z,88576.00
2018-05-04T10:16:59.963Z,87936.00
2018-05-04T10:17:59.971Z,87552.00
2018-05-04T10:18:59.979Z,85920.00
2018-05-04T10:19:59.997Z,83648.00
2018-05-04T10:21:00.004Z,81888.00
2018-05-04T10:22:00.023Z,89280.00
2018-05-04T10:23:00.011Z,89888.00
2018-05-04T10:24:00.031Z,89056.00
2018-05-04T10:25:00.035Z,88000.00
2018-05-04T10:26:00.035Z,89536.00
2018-05-04T10:27:00.053Z,89312.00
2018-05-04T10:28:00.062Z,88224.00
2018-05-04T10:29:00.059Z,86720.00
2018-05-04T10:30:00.070Z,87520.00
2018-05-04T10:31:00.076Z,83392.00
2018-05-04T10:32:00.101Z,83200.00
2018-05-04T10:33:00.103Z,85504.00
2018-05-04T10:34:00.110Z,85600.00
2018-05-04T10:35:00.131Z,84704.00
2018-05-04T10:36:00.115Z,85920.00
2018-05-04T10:37:00.123Z,87776.00
2018-05-04T10:38:00.133Z,87104.00
2018-05-04T10:39:00.193Z,85152.00
2018-05-04T10:40:00.150Z,80640.00
2018-05-04T10:41:00.156Z,83488.00
2018-05-04T10:42:00.175Z,86688.00
2018-05-04T10:43:00.174Z,89696.00
2018-05-04T10:44:00.178Z,93056.00
2018-05-04T10:45:00.272Z,91680.00
2018-05-04T10:46:00.211Z,91392.00
2018-05-04T10:47:00.204Z,88640.00
2018-05-04T10:48:00.224Z,89632.00
2018-05-04T10:49:00.220Z,87040.00
2018-05-04T10:50:00.226Z,77952.00
2018-05-04T10:51:00.248Z,71008.00
2018-05-04T10:52:00.246Z,78144.00
2018-05-04T10:53:00.250Z,77728.00
2018-05-04T10:54:00.259Z,71488.00
2018-05-04T10:55:00.267Z,74048.00
2018-05-04T10:56:00.275Z,76416.00
2018-05-04T10:57:00.282Z,82048.00
2018-05-04T10:58:00.303Z,88224.00
2018-05-04T10:59:00.303Z,89216.00
2018-05-04T11:00:00.313Z,92448.00
2018-05-04T11:01:00.312Z,93152.00
2018-05-04T11:02:00.325Z,94368.00
2018-05-04T11:03:00.331Z,94240.00
2018-05-04T11:04:00.341Z,94848.00
2018-05-04T11:05:00.344Z,93856.00
2018-05-04T11:06:00.365Z,91328.00
2018-05-04T11:07:00.371Z,90976.00
2018-05-04T11:08:00.377Z,93184.00
2018-05-04T11:09:00.376Z,94336.00
2018-05-04T11:10:00.392Z,94560.00
2018-05-04T11:11:00.389Z,96384.00
2018-05-04T11:12:00.405Z,95008.00
2018-05-04T11:13:00.402Z,94144.00
2018-05-04T11:14:00.410Z,94912.00
2018-05-04T11:15:00.417Z,94496.00
2018-05-04T11:16:00.426Z,95360.00
2018-05-04T11:17:00.435Z,94688.00
2018-05-04T11:18:00.448Z,97472.00
2018-05-04T11:19:00.448Z,97632.00
2018-05-04T11:20:00.456Z,97568.00
2018-05-04T11:21:00.464Z,98336.00
2018-05-04T11:22:00.481Z,97088.00
2018-05-04T11:23:00.494Z,95008.00
2018-05-04T11:24:00.485Z,95264.00
2018-05-04T11:25:00.498Z,93312.00
2018-05-04T11:26:00.501Z,93280.00
2018-05-04T11:27:00.507Z,94784.00
2018-05-04T11:28:00.514Z,96288.00
2018-05-04T11:29:00.542Z,96576.00
2018-05-04T11:30:00.529Z,96512.00
2018-05-04T11:31:00.537Z,94688.00
2018-05-04T11:32:00.549Z,94624.00
2018-05-04T11:33:00.571Z,93792.00
2018-05-04T11:34:00.578Z,95808.00
2018-05-04T11:35:00.587Z,99040.00
2018-05-04T11:36:00.592Z,99712.00
2018-05-04T11:37:00.599Z,104864.00
2018-05-04T11:38:00.635Z,102656.00
2018-05-04T11:39:00.768Z,96736.00
2018-05-04T11:40:00.621Z,90816.00
2018-05-04T11:41:00.632Z,85056.00
2018-05-04T11:42:00.639Z,87232.00
2018-05-04T11:43:00.639Z,88064.00
2018-05-04T11:44:00.652Z,92320.00
2018-05-04T11:45:00.659Z,95168.00
2018-05-04T11:46:00.672Z,95808.00
2018-05-04T11:47:00.671Z,97600.00
2018-05-04T11:48:00.676Z,95776.00
2018-05-04T11:49:00.682Z,95744.00
2018-05-04T11:50:00.700Z,94336.00
2018-05-04T11:51:00.697Z,96032.00
2018-05-04T11:52:00.717Z,98624.00
2018-05-04T11:53:00.711Z,98336.00
2018-05-04T11:54:00.730Z,98720.00
2018-05-04T11:55:00.735Z,97472.00
2018-05-04T11:56:00.751Z,97408.00
2018-05-04T11:57:00.759Z,97120.00
2018-05-04T11:58:00.767Z,97888.00
2018-05-04T11:59:00.764Z,98272.00
2018-05-04T12:00:00.789Z,97856.00
2018-05-04T12:01:00.805Z,91936.00
2018-05-04T12:02:00.813Z,86912.00
2018-05-04T12:03:00.796Z,86880.00
2018-05-04T12:04:00.810Z,87744.00
2018-05-04T12:05:00.816Z,88000.00
2018-05-04T12:06:00.832Z,90400.00
2018-05-04T12:07:00.831Z,89696.00
2018-05-04T12:08:00.866Z,93440.00
2018-05-04T12:09:00.846Z,95488.00
2018-05-04T12:10:00.866Z,95136.00
2018-05-04T12:11:00.877Z,93504.00
2018-05-04T12:12:00.887Z,92256.00
2018-05-04T12:13:00.882Z,91712.00
2018-05-04T12:14:00.889Z,95552.00
2018-05-04T12:15:00.893Z,96384.00